Domov               UVHVVR             MKGP            O straneh              
ZDRAVSTVENO VARSTVO RASTLIN
  MREŽA AGROMET. POSTAJ
 ► PROGNOSTIČNA OBVESTILA
AGROMETEOROLOŠKI PODATKI -
ARSO
OBVLADOVANJE TVEGANJ ZARADI
NEUGODNIH VREMENSKIH RAZMER
  ► NARAVNE NESREČE
  ► SUŠA/MOČA
  ► NAMAKANJE
  ► ŽLED (gozdarstvo)
KARTOGRAFSKI PRIKAZI
SPLETNE POVEZAVE
PROJEKTI IN PUBLIKACIJE

AGROMETEOROLOŠKA MREŽA: VREMENSKE POSTAJE IN FENOLOŠKA OPAZOVANJA

Pregled podatkov za lokacijo Blanca, meteorološka postaja 27263

Pregled senzorjev na lokaciji

ID Ime Zadnja
vrednost
Datum
zadnje
spremembe
Tip
senzorja
2153 Relativna vlaga 2 m (% RH) 93,33 % RH 23.10.2017 11:03 Generic 0 - 100 %
2154 Omočenost lista (U) 0,33 U 23.10.2017 11:03 A730WET
2155 Padavine 0.2 mm (mm) 0 mm 23.10.2017 11:04 Generic
2158 Temperatura 2 m ( °C) 7,68 °C 23.10.2017 11:03 Generic -40 - +60 °C

Pregled podatkov zadnjih 24 ur

Zap.
št.
Datum in čas Blanca
Omočenost
lista
Padavine
0.2
mm
Relativna
vlaga
2
m
Temperatura
2
m
0 23.10.2017 10:00 0,43 0 93,6 7,55
1 23.10.2017 09:30 1 0 94,28 7,18
2 23.10.2017 09:00 1,5 0 94,47 6,94
3 23.10.2017 08:30 2,73 0 94,46 6,64
4 23.10.2017 08:00 6,2 0 94,57 6,49
5 23.10.2017 07:30 6,3 0 94,79 6,26
6 23.10.2017 07:00 5,67 0 94,96 6,1
7 23.10.2017 06:30 5,07 0 94,98 6,07
8 23.10.2017 06:00 4,93 0 94,96 6,1
9 23.10.2017 05:30 4,13 0 94,94 6,04
10 23.10.2017 05:00 4,73 0 94,78 6,1
11 23.10.2017 04:30 4,97 0 94,7 6,09
12 23.10.2017 04:00 4,4 0 94,54 6,14
13 23.10.2017 03:30 3,73 0,2 94,49 6,18
14 23.10.2017 03:00 3,1 0,2 94,47 6,22
15 23.10.2017 02:30 3,03 0,2 94,34 6,34
16 23.10.2017 02:00 2,57 0,4 94,21 6,29
17 23.10.2017 01:30 2,2 0,2 94,18 6,18
18 23.10.2017 01:00 2 0,4 93,88 6,13
19 23.10.2017 00:30 2,27 0,4 93,3 6,17
20 23.10.2017 00:00 2,27 0,2 92,89 6,19
21 22.10.2017 23:30 3 0 91,8 6,25
22 22.10.2017 23:00 2,2 0,2 90,39 6,34
23 22.10.2017 22:30 2 0,2 87,92 6,55
24 22.10.2017 22:00 2,23 0,2 85,82 6,83
25 22.10.2017 21:30 2,33 0 87,05 6,88
26 22.10.2017 21:00 2 0 89,72 7,02
27 22.10.2017 20:30 2,07 1 86,44 7,27
28 22.10.2017 20:00 2,27 0,2 90,97 7,51
29 22.10.2017 19:30 2,33 0,4 88,21 7,85
30 22.10.2017 19:00 2,47 0,4 87,29 8,03
31 22.10.2017 18:30 2,13 0,8 86,9 8,29
32 22.10.2017 18:00 2,13 0,4 88,48 8,66
33 22.10.2017 17:30 2,2 0,6 84,03 9,18
34 22.10.2017 17:00 2,13 1,4 88,39 9,05
35 22.10.2017 16:30 3,07 1,2 86,27 9,44
36 22.10.2017 16:00 3,2 0,6 84,94 9,82
37 22.10.2017 15:30 3,73 0,4 82,57 10,39
38 22.10.2017 15:00 1,67 0 83,23 10,6
39 22.10.2017 14:30 5,93 1 87,05 10,77
40 22.10.2017 14:00 4,93 1 91,81 10,57
41 22.10.2017 13:30 5,53 1,4 92,16 10,99
42 22.10.2017 13:00 8,8 1 94,84 11,17
43 22.10.2017 12:30 10 0,2 94,66 11,22
44 22.10.2017 12:00 9,97 0,4 94,3 11,29
45 22.10.2017 11:30 10 0,6 93,79 11,36
© 2011 Ministrstvo za kmetijstvo, gozdarstvo in prehrano. Vse pravice pridržane.